createdAt,value
2019-05-11T00:00:47.045Z,13.43
2019-05-11T00:03:16.687Z,13.38
2019-05-11T00:05:46.177Z,13.08
2019-05-11T00:08:15.883Z,13.20
2019-05-11T00:10:45.444Z,14.07
2019-05-11T00:13:14.939Z,13.25
2019-05-11T00:15:44.525Z,14.60
2019-05-11T00:18:14.367Z,15.43
2019-05-11T00:20:44.047Z,14.95
2019-05-11T00:23:13.535Z,15.00
2019-05-11T00:25:43.132Z,15.05
2019-05-11T00:28:13.191Z,14.43
2019-05-11T00:30:42.956Z,14.55
2019-05-11T00:33:13.534Z,14.83
2019-05-11T00:35:43.026Z,15.15
2019-05-11T00:38:12.601Z,15.95
2019-05-11T00:40:42.161Z,15.93
2019-05-11T00:43:11.763Z,15.75
2019-05-11T00:45:41.302Z,15.05
2019-05-11T00:48:10.933Z,15.90
2019-05-11T00:50:40.678Z,14.58
2019-05-11T00:53:10.323Z,15.28
2019-05-11T00:55:39.876Z,15.08
2019-05-11T00:58:11.412Z,14.90
2019-05-11T01:00:41.243Z,15.85
2019-05-11T01:03:11.957Z,14.95
2019-05-11T01:05:41.566Z,15.18
2019-05-11T01:08:11.173Z,15.98
2019-05-11T01:10:42.395Z,15.35
2019-05-11T01:13:12.076Z,16.12
2019-05-11T01:15:41.703Z,15.20
2019-05-11T01:18:11.348Z,15.45
2019-05-11T01:20:40.992Z,15.55
2019-05-11T01:23:10.550Z,15.83
2019-05-11T01:25:40.174Z,15.93
2019-05-11T01:28:09.778Z,14.73
2019-05-11T01:30:39.385Z,15.95
2019-05-11T01:33:09.123Z,15.93
2019-05-11T01:35:38.700Z,16.30
2019-05-11T01:38:08.414Z,16.48
2019-05-11T01:40:38.125Z,16.32
2019-05-11T01:43:07.712Z,15.98
2019-05-11T01:45:37.440Z,15.83
2019-05-11T01:48:07.082Z,15.83
2019-05-11T01:50:36.677Z,16.60
2019-05-11T01:53:06.475Z,17.02
2019-05-11T01:55:36.066Z,16.17
2019-05-11T01:58:05.700Z,15.00
2019-05-11T02:00:35.398Z,16.07
2019-05-11T02:03:05.030Z,16.52
2019-05-11T02:05:34.656Z,15.25
2019-05-11T02:08:04.425Z,16.30
2019-05-11T02:10:34.062Z,16.20
2019-05-11T02:13:03.757Z,15.03
2019-05-11T02:15:33.282Z,16.12
2019-05-11T02:18:03.096Z,16.75
2019-05-11T02:20:32.664Z,14.87
2019-05-11T02:23:02.235Z,15.60
2019-05-11T02:25:31.792Z,15.18
2019-05-11T02:28:01.320Z,14.75
2019-05-11T02:30:30.974Z,14.70
2019-05-11T02:33:01.529Z,14.58
2019-05-11T02:35:32.058Z,14.15
2019-05-11T02:38:01.717Z,15.65
2019-05-11T02:40:31.438Z,14.93
2019-05-11T02:43:01.022Z,14.80
2019-05-11T02:45:41.006Z,14.55
2019-05-11T02:48:10.818Z,14.85
2019-05-11T02:50:40.395Z,15.95
2019-05-11T02:53:10.449Z,15.80
2019-05-11T02:55:40.189Z,16.10
2019-05-11T02:58:09.967Z,14.95
2019-05-11T03:00:44.456Z,15.18
2019-05-11T03:03:14.162Z,14.83
2019-05-11T03:05:43.630Z,15.50
2019-05-11T03:08:13.352Z,15.25
2019-05-11T03:10:43.296Z,15.38
2019-05-11T03:13:12.961Z,15.50
2019-05-11T03:15:42.597Z,15.85
2019-05-11T03:18:12.224Z,16.15
2019-05-11T03:20:41.730Z,17.50
2019-05-11T03:23:11.234Z,16.70
2019-05-11T03:25:42.038Z,15.75
2019-05-11T03:28:11.551Z,15.53
2019-05-11T03:30:41.188Z,15.80
2019-05-11T03:33:10.728Z,16.65
2019-05-11T03:35:40.354Z,15.15
2019-05-11T03:38:09.937Z,16.15
2019-05-11T03:40:39.578Z,16.85
2019-05-11T03:43:09.210Z,17.75
2019-05-11T03:45:38.897Z,18.87
2019-05-11T03:48:08.537Z,18.30
2019-05-11T03:50:38.179Z,18.12
2019-05-11T03:53:07.809Z,18.90
2019-05-11T03:55:37.386Z,19.35
2019-05-11T03:58:06.933Z,19.82
2019-05-11T04:00:36.655Z,19.85
2019-05-11T04:03:06.250Z,19.37
2019-05-11T04:05:35.721Z,18.37
2019-05-11T04:08:05.404Z,18.77
2019-05-11T04:10:34.994Z,17.02
2019-05-11T04:13:04.580Z,18.35
2019-05-11T04:15:34.157Z,16.65
2019-05-11T04:18:03.716Z,16.42
2019-05-11T04:20:33.302Z,17.05
2019-05-11T04:23:02.882Z,17.95
2019-05-11T04:25:32.445Z,17.62
2019-05-11T04:28:02.007Z,18.60
2019-05-11T04:30:31.579Z,18.37
2019-05-11T04:33:01.141Z,18.82
2019-05-11T04:35:30.697Z,18.32
2019-05-11T04:38:00.270Z,19.32
2019-05-11T04:40:30.818Z,17.92
2019-05-11T04:43:01.554Z,18.67
2019-05-11T04:45:31.033Z,16.97
2019-05-11T04:48:00.606Z,18.42
2019-05-11T04:50:30.102Z,17.95
2019-05-11T04:52:59.679Z,18.12
2019-05-11T04:55:29.232Z,18.12
2019-05-11T04:57:58.809Z,19.55
2019-05-11T05:00:28.504Z,18.05
2019-05-11T05:02:58.077Z,17.67
2019-05-11T05:05:27.648Z,18.73
2019-05-11T05:08:08.495Z,17.60
2019-05-11T05:10:28.637Z,18.20
2019-05-11T05:13:10.239Z,17.27
2019-05-11T05:15:29.413Z,16.30
2019-05-11T05:17:59.054Z,15.65
2019-05-11T05:20:28.625Z,15.68
2019-05-11T05:22:58.223Z,16.17
2019-05-11T05:25:27.789Z,17.07
2019-05-11T05:27:57.425Z,15.88
2019-05-11T05:30:27.048Z,17.17
2019-05-11T05:32:56.626Z,16.75
2019-05-11T05:35:26.249Z,17.52
2019-05-11T05:37:55.823Z,15.20
2019-05-11T05:40:25.385Z,16.82
2019-05-11T05:42:54.914Z,16.73
2019-05-11T05:45:24.544Z,16.52
2019-05-11T05:47:54.188Z,16.55
2019-05-11T05:50:23.699Z,17.02
2019-05-11T05:52:53.334Z,16.95
2019-05-11T05:55:22.980Z,17.23
2019-05-11T05:57:52.474Z,17.67
2019-05-11T06:00:22.308Z,17.92
2019-05-11T06:02:51.838Z,16.82
2019-05-11T06:05:21.349Z,17.35
2019-05-11T06:07:51.090Z,17.55
2019-05-11T06:10:20.581Z,17.62
2019-05-11T06:12:50.152Z,19.00
2019-05-11T06:15:19.982Z,17.07
2019-05-11T06:17:49.614Z,17.12
2019-05-11T06:20:19.298Z,16.57
2019-05-11T06:22:48.792Z,16.37
2019-05-11T06:25:18.565Z,17.12
2019-05-11T06:27:48.330Z,16.90
2019-05-11T06:30:19.045Z,15.75
2019-05-11T06:32:48.700Z,15.63
2019-05-11T06:35:18.281Z,17.23
2019-05-11T06:37:47.853Z,15.90
2019-05-11T06:40:17.590Z,16.73
2019-05-11T06:42:47.228Z,16.95
2019-05-11T06:45:17.729Z,15.05
2019-05-11T06:47:47.371Z,15.38
2019-05-11T06:50:17.048Z,17.05
2019-05-11T06:52:46.902Z,17.75
2019-05-11T06:55:16.465Z,17.17
2019-05-11T06:57:46.181Z,16.05
2019-05-11T07:00:16.182Z,15.28
2019-05-11T07:02:45.820Z,15.48
2019-05-11T07:05:15.513Z,14.13
2019-05-11T07:07:47.558Z,14.68
2019-05-11T07:10:16.555Z,13.38
2019-05-11T07:12:46.213Z,13.50
2019-05-11T07:15:15.907Z,13.45
2019-05-11T07:17:45.547Z,13.28
2019-05-11T07:20:15.277Z,13.15
2019-05-11T07:22:44.819Z,11.35
2019-05-11T07:25:14.713Z,11.50
2019-05-11T07:27:44.216Z,10.48
2019-05-11T07:30:14.258Z,11.38
2019-05-11T07:32:44.107Z,10.85
2019-05-11T07:35:14.011Z,10.53
2019-05-11T07:37:43.654Z,10.90
2019-05-11T07:40:13.520Z,11.53
2019-05-11T07:42:43.222Z,12.10
2019-05-11T07:45:13.870Z,12.40
2019-05-11T07:47:43.513Z,12.95
2019-05-11T07:50:13.327Z,12.58
2019-05-11T07:52:42.894Z,13.48
2019-05-11T07:55:12.833Z,13.38
2019-05-11T07:57:42.538Z,13.60
2019-05-11T08:00:12.357Z,13.80
2019-05-11T08:02:42.071Z,13.65
2019-05-11T08:05:11.906Z,13.35
2019-05-11T08:07:41.655Z,13.18
2019-05-11T08:10:11.919Z,12.13
2019-05-11T08:12:41.621Z,11.83
2019-05-11T08:15:13.581Z,11.73
2019-05-11T08:17:42.854Z,11.12
2019-05-11T08:20:12.971Z,11.05
2019-05-11T08:22:42.735Z,10.48
2019-05-11T08:25:12.483Z,9.70
2019-05-11T08:27:42.234Z,9.23
2019-05-11T08:30:12.729Z,9.05
2019-05-11T08:32:42.304Z,9.40
2019-05-11T08:35:12.083Z,8.00
2019-05-11T08:37:41.724Z,8.18
2019-05-11T08:40:18.323Z,7.00
2019-05-11T08:42:48.385Z,5.58
2019-05-11T08:45:24.298Z,5.30
2019-05-11T08:47:49.353Z,3.90
2019-05-11T08:50:22.187Z,3.72
2019-05-11T08:52:51.947Z,4.03
2019-05-11T08:55:24.314Z,4.30
2019-05-11T08:57:53.881Z,4.50
2019-05-11T09:00:23.685Z,4.92
2019-05-11T09:02:53.353Z,4.78
2019-05-11T09:05:23.009Z,3.87
2019-05-11T09:07:52.507Z,4.22
2019-05-11T09:10:22.141Z,4.05
2019-05-11T09:12:53.404Z,4.05
2019-05-11T09:15:33.582Z,4.50
2019-05-11T09:17:54.084Z,5.37
2019-05-11T09:20:24.753Z,4.67
2019-05-11T09:22:54.312Z,4.20
2019-05-11T09:25:25.132Z,3.60
2019-05-11T09:27:54.756Z,3.87
2019-05-11T09:30:24.393Z,3.60
2019-05-11T09:32:53.964Z,3.45
2019-05-11T09:35:23.560Z,3.70
2019-05-11T09:37:53.193Z,3.58
2019-05-11T09:40:22.742Z,5.42
2019-05-11T09:42:52.437Z,4.15
2019-05-11T09:45:22.029Z,4.03
2019-05-11T09:47:51.589Z,3.90
2019-05-11T09:50:21.276Z,3.50
2019-05-11T09:52:50.838Z,4.00
2019-05-11T09:55:20.404Z,4.10
2019-05-11T09:57:50.144Z,4.53
2019-05-11T10:00:19.969Z,6.67
2019-05-11T10:02:49.689Z,5.30
2019-05-11T10:05:19.423Z,4.05
2019-05-11T10:07:49.055Z,4.37
2019-05-11T10:10:19.001Z,4.45
2019-05-11T10:12:52.669Z,4.20
2019-05-11T10:15:21.457Z,4.40
2019-05-11T10:17:51.169Z,4.10
2019-05-11T10:20:20.874Z,4.62
2019-05-11T10:22:50.429Z,4.47
2019-05-11T10:25:20.021Z,4.75
2019-05-11T10:27:49.585Z,4.78
2019-05-11T10:30:19.282Z,4.75
2019-05-11T10:32:49.322Z,5.22
2019-05-11T10:35:18.878Z,4.28
2019-05-11T10:37:48.457Z,4.95
2019-05-11T10:40:19.117Z,5.35
2019-05-11T10:42:48.873Z,4.92
2019-05-11T10:45:18.561Z,4.00
2019-05-11T10:47:48.973Z,4.58
2019-05-11T10:50:19.107Z,3.98
2019-05-11T10:52:48.952Z,3.30
2019-05-11T10:55:19.473Z,3.37
2019-05-11T10:57:49.587Z,3.65
2019-05-11T11:00:20.973Z,3.27
2019-05-11T11:02:50.667Z,3.45
2019-05-11T11:05:20.480Z,3.92
2019-05-11T11:07:50.048Z,3.50
2019-05-11T11:10:19.762Z,3.58
2019-05-11T11:12:49.324Z,3.25
2019-05-11T11:15:19.343Z,3.37
2019-05-11T11:17:48.964Z,3.47
2019-05-11T11:20:18.874Z,3.15
2019-05-11T11:22:48.929Z,3.20
2019-05-11T11:25:18.638Z,3.45
2019-05-11T11:27:48.846Z,3.10
2019-05-11T11:30:19.306Z,3.80
2019-05-11T11:32:48.965Z,3.35
2019-05-11T11:35:18.849Z,3.62
2019-05-11T11:37:49.681Z,3.20
2019-05-11T11:40:19.499Z,3.40
2019-05-11T11:42:49.231Z,3.30
2019-05-11T11:45:19.197Z,3.22
2019-05-11T11:47:49.523Z,3.75
2019-05-11T11:50:20.742Z,3.45
2019-05-11T11:52:50.623Z,3.25
2019-05-11T11:55:20.262Z,3.58
2019-05-11T11:57:50.498Z,3.33
2019-05-11T12:00:20.380Z,3.08
2019-05-11T12:02:52.697Z,3.60
2019-05-11T12:05:22.253Z,3.22
2019-05-11T12:07:51.817Z,3.22
2019-05-11T12:10:24.552Z,3.80
2019-05-11T12:12:54.327Z,3.30
2019-05-11T12:15:25.149Z,3.50
2019-05-11T12:17:54.657Z,3.27
2019-05-11T12:20:28.628Z,3.37
2019-05-11T12:22:58.264Z,3.05
2019-05-11T12:25:28.027Z,3.42
2019-05-11T12:27:59.175Z,3.33
2019-05-11T12:30:28.808Z,3.60
2019-05-11T12:32:59.005Z,4.05
2019-05-11T12:35:28.637Z,3.92
2019-05-11T12:37:59.088Z,3.72
2019-05-11T12:40:29.845Z,4.03
2019-05-11T12:42:59.406Z,4.15
2019-05-11T12:45:29.683Z,4.37
2019-05-11T12:48:00.293Z,4.30
2019-05-11T12:50:29.926Z,3.83
2019-05-11T12:53:00.930Z,5.75
2019-05-11T12:55:30.570Z,5.15
2019-05-11T12:58:00.169Z,6.15
2019-05-11T13:00:31.381Z,5.78
2019-05-11T13:03:01.308Z,6.83
2019-05-11T13:05:30.874Z,6.45
2019-05-11T13:08:00.522Z,5.95
2019-05-11T13:10:30.188Z,5.40
2019-05-11T13:13:02.582Z,5.47
2019-05-11T13:15:31.424Z,5.03
2019-05-11T13:18:01.031Z,4.95
2019-05-11T13:20:30.733Z,4.62
2019-05-11T13:23:00.450Z,4.85
2019-05-11T13:25:30.052Z,4.97
2019-05-11T13:28:01.405Z,4.42
2019-05-11T13:30:31.180Z,4.60
2019-05-11T13:33:00.744Z,4.35
2019-05-11T13:35:30.429Z,4.40
2019-05-11T13:38:00.014Z,4.47
2019-05-11T13:40:29.572Z,4.78
2019-05-11T13:42:59.140Z,4.10
2019-05-11T13:45:28.703Z,4.53
2019-05-11T13:47:59.323Z,4.95
2019-05-11T13:50:29.615Z,4.25
2019-05-11T13:52:59.630Z,4.90
2019-05-11T13:55:29.243Z,4.10
2019-05-11T13:57:58.876Z,4.75
2019-05-11T14:00:28.970Z,5.12
2019-05-11T14:03:00.790Z,4.65
2019-05-11T14:05:30.493Z,5.40
2019-05-11T14:08:00.144Z,5.10
2019-05-11T14:10:29.858Z,5.08
2019-05-11T14:12:59.348Z,5.28
2019-05-11T14:15:29.010Z,4.83
2019-05-11T14:18:07.702Z,5.45
2019-05-11T14:20:31.320Z,5.30
2019-05-11T14:23:00.971Z,6.58
2019-05-11T14:25:30.677Z,5.75
2019-05-11T14:28:00.390Z,6.00
2019-05-11T14:30:30.107Z,6.28
2019-05-11T14:32:59.697Z,5.05
2019-05-11T14:35:29.252Z,5.55
2019-05-11T14:37:58.963Z,5.35
2019-05-11T14:40:28.521Z,4.78
2019-05-11T14:42:58.290Z,6.35
2019-05-11T14:45:28.837Z,5.90
2019-05-11T14:47:58.725Z,6.92
2019-05-11T14:50:29.832Z,5.95
2019-05-11T14:52:59.316Z,6.25
2019-05-11T14:55:29.181Z,6.42
2019-05-11T14:57:58.669Z,6.00
2019-05-11T15:00:28.953Z,6.97
2019-05-11T15:02:58.759Z,6.90
2019-05-11T15:05:28.522Z,6.65
2019-05-11T15:07:58.296Z,7.83
2019-05-11T15:10:28.008Z,6.08
2019-05-11T15:12:59.074Z,7.15
2019-05-11T15:15:29.083Z,7.70
2019-05-11T15:17:58.897Z,7.67
2019-05-11T15:20:28.807Z,8.43
2019-05-11T15:22:58.520Z,8.60
2019-05-11T15:25:28.833Z,8.50
2019-05-11T15:28:00.025Z,9.23
2019-05-11T15:30:31.300Z,8.95
2019-05-11T15:33:00.926Z,9.88
2019-05-11T15:35:30.429Z,7.90
2019-05-11T15:37:59.985Z,7.25
2019-05-11T15:40:29.573Z,7.47
2019-05-11T15:42:59.157Z,7.17
2019-05-11T15:45:28.717Z,6.97
2019-05-11T15:47:59.064Z,6.10
2019-05-11T15:50:29.219Z,6.03
2019-05-11T15:52:59.009Z,5.22
2019-05-11T15:55:28.569Z,5.20
2019-05-11T15:57:59.204Z,5.25
2019-05-11T16:00:28.776Z,6.15
2019-05-11T16:02:58.402Z,6.10
2019-05-11T16:05:28.486Z,6.25
2019-05-11T16:07:58.847Z,6.72
2019-05-11T16:10:29.385Z,6.37
2019-05-11T16:12:58.878Z,6.67
2019-05-11T16:15:30.494Z,6.33
2019-05-11T16:18:00.141Z,6.85
2019-05-11T16:20:29.784Z,7.00
2019-05-11T16:22:59.357Z,7.28
2019-05-11T16:25:28.929Z,7.62
2019-05-11T16:27:58.669Z,7.30
2019-05-11T16:30:28.852Z,6.95
2019-05-11T16:32:58.496Z,7.53
2019-05-11T16:35:28.189Z,6.47
2019-05-11T16:37:59.188Z,6.62
2019-05-11T16:40:29.654Z,6.65
2019-05-11T16:42:59.340Z,6.45
2019-05-11T16:45:29.564Z,6.83
2019-05-11T16:47:59.145Z,6.75
2019-05-11T16:50:28.879Z,6.62
2019-05-11T16:52:58.674Z,6.05
2019-05-11T16:55:28.245Z,6.37
2019-05-11T16:57:58.778Z,7.45
2019-05-11T17:00:28.617Z,7.03
2019-05-11T17:02:58.127Z,7.75
2019-05-11T17:05:33.408Z,7.60
2019-05-11T17:07:59.020Z,6.67
2019-05-11T17:10:28.573Z,6.17
2019-05-11T17:12:59.255Z,6.33
2019-05-11T17:15:29.013Z,5.30
2019-05-11T17:17:58.900Z,5.10
2019-05-11T17:20:28.541Z,5.12
2019-05-11T17:22:58.179Z,5.87
2019-05-11T17:25:28.802Z,6.22
2019-05-11T17:27:59.722Z,6.78
2019-05-11T17:30:29.519Z,7.08
2019-05-11T17:32:59.450Z,6.42
2019-05-11T17:35:29.084Z,6.78
2019-05-11T17:37:58.749Z,7.60
2019-05-11T17:40:28.608Z,5.58
2019-05-11T17:42:58.630Z,5.00
2019-05-11T17:45:28.118Z,5.05
2019-05-11T17:47:58.324Z,5.10
2019-05-11T17:50:28.285Z,5.67
2019-05-11T17:52:57.860Z,5.75
2019-05-11T17:55:28.683Z,5.95
2019-05-11T17:57:58.443Z,5.47
2019-05-11T18:00:28.500Z,6.10
2019-05-11T18:02:58.425Z,7.55
2019-05-11T18:05:28.261Z,7.78
2019-05-11T18:07:58.083Z,7.80
2019-05-11T18:10:28.303Z,10.25
2019-05-11T18:12:59.201Z,9.48
2019-05-11T18:15:28.772Z,3.42
2019-05-11T18:17:58.857Z,3.72
2019-05-11T18:20:28.829Z,3.20
2019-05-11T18:22:59.069Z,4.17
2019-05-11T18:25:28.935Z,4.90
2019-05-11T18:27:58.789Z,4.22
2019-05-11T18:30:29.332Z,4.45
2019-05-11T18:33:00.281Z,3.65
2019-05-11T18:35:29.855Z,4.20
2019-05-11T18:37:59.421Z,4.03
2019-05-11T18:40:28.915Z,4.62
2019-05-11T18:42:58.554Z,2.87
2019-05-11T18:45:28.842Z,4.03
2019-05-11T18:47:58.620Z,4.45
2019-05-11T18:50:31.212Z,4.17
2019-05-11T18:53:01.036Z,4.53
2019-05-11T18:55:30.597Z,4.80
2019-05-11T18:58:00.301Z,4.37
2019-05-11T19:00:29.946Z,4.37
2019-05-11T19:02:59.517Z,4.28
2019-05-11T19:05:29.267Z,4.58
2019-05-11T19:07:58.799Z,4.30
2019-05-11T19:10:28.418Z,6.45
2019-05-11T19:12:58.971Z,7.17
2019-05-11T19:15:30.207Z,5.83
2019-05-11T19:17:59.836Z,6.78
2019-05-11T19:20:44.637Z,6.12
2019-05-11T19:23:03.741Z,7.03
2019-05-11T19:25:33.405Z,5.92
2019-05-11T19:28:03.041Z,5.80
2019-05-11T19:30:32.750Z,5.05
2019-05-11T19:33:02.236Z,3.42
2019-05-11T19:35:33.437Z,3.20
2019-05-11T19:38:03.207Z,2.67
2019-05-11T19:40:32.765Z,2.35
2019-05-11T19:43:02.424Z,1.62
2019-05-11T19:45:32.140Z,1.10
2019-05-11T19:48:03.311Z,0.88
2019-05-11T19:50:32.953Z,1.00
2019-05-11T19:53:02.667Z,0.40
2019-05-11T19:55:32.333Z,0.55
2019-05-11T19:58:02.267Z,0.50
2019-05-11T20:00:34.563Z,0.42
2019-05-11T20:03:08.825Z,0.40
2019-05-11T20:05:38.178Z,0.80
2019-05-11T20:08:08.040Z,1.40
2019-05-11T20:10:38.354Z,0.28
2019-05-11T20:13:08.219Z,0.70
2019-05-11T20:15:38.293Z,0.50
2019-05-11T20:18:10.762Z,0.30
2019-05-11T20:20:41.546Z,0.50
2019-05-11T20:23:11.109Z,0.50
2019-05-11T20:25:41.697Z,0.40
2019-05-11T20:28:11.200Z,0.78
2019-05-11T20:30:40.825Z,0.72
2019-05-11T20:33:10.421Z,1.92
2019-05-11T20:35:40.126Z,1.60
2019-05-11T20:38:09.841Z,1.98
2019-05-11T20:40:40.507Z,2.05
2019-05-11T20:43:10.186Z,0.93
2019-05-11T20:45:39.816Z,1.50
2019-05-11T20:48:09.512Z,1.35
2019-05-11T20:50:39.133Z,1.50
2019-05-11T20:53:08.837Z,1.10
2019-05-11T20:55:38.468Z,0.93
2019-05-11T20:58:08.638Z,0.65
2019-05-11T21:00:39.945Z,0.33
2019-05-11T21:03:09.715Z,0.40
2019-05-11T21:05:39.341Z,0.30
2019-05-11T21:08:08.840Z,0.68
2019-05-11T21:10:38.735Z,0.60
2019-05-11T21:13:08.772Z,0.40
2019-05-11T21:15:38.719Z,0.42
2019-05-11T21:18:08.293Z,1.62
2019-05-11T21:20:38.225Z,3.10
2019-05-11T21:23:08.317Z,4.17
2019-05-11T21:25:38.099Z,4.83
2019-05-11T21:28:08.532Z,5.62
2019-05-11T21:30:39.999Z,5.00
2019-05-11T21:33:09.765Z,6.53
2019-05-11T21:35:39.397Z,5.83
2019-05-11T21:38:09.030Z,5.35
2019-05-11T21:40:39.566Z,5.47
2019-05-11T21:43:09.054Z,5.30
2019-05-11T21:45:40.755Z,5.80
2019-05-11T21:48:09.819Z,6.35
2019-05-11T21:50:41.562Z,6.25
2019-05-11T21:53:11.257Z,6.22
2019-05-11T21:55:40.741Z,6.30
2019-05-11T21:58:10.320Z,6.25
2019-05-11T22:00:40.236Z,6.30
2019-05-11T22:03:10.520Z,6.12
2019-05-11T22:05:41.134Z,6.85
2019-05-11T22:08:10.829Z,6.22
2019-05-11T22:10:41.544Z,6.08
2019-05-11T22:13:11.124Z,5.92
2019-05-11T22:15:40.928Z,5.20
2019-05-11T22:18:10.642Z,5.00
2019-05-11T22:20:41.004Z,4.95
2019-05-11T22:23:10.881Z,5.08
2019-05-11T22:25:40.537Z,5.15
2019-05-11T22:28:10.200Z,5.30
2019-05-11T22:30:39.706Z,4.80
2019-05-11T22:33:09.417Z,4.80
2019-05-11T22:35:39.214Z,5.05
2019-05-11T22:38:09.041Z,4.25
2019-05-11T22:40:38.664Z,4.60
2019-05-11T22:43:09.357Z,4.03
2019-05-11T22:45:40.362Z,4.22
2019-05-11T22:48:10.002Z,4.78
2019-05-11T22:50:39.561Z,3.70
2019-05-11T22:53:11.585Z,3.90
2019-05-11T22:55:40.376Z,3.75
2019-05-11T22:58:10.014Z,3.45
2019-05-11T23:00:41.639Z,3.52
2019-05-11T23:03:11.574Z,3.62
2019-05-11T23:05:42.206Z,3.80
2019-05-11T23:08:12.012Z,3.47
2019-05-11T23:10:41.706Z,3.42
2019-05-11T23:13:11.730Z,4.37
2019-05-11T23:15:41.661Z,5.12
2019-05-11T23:18:11.221Z,4.97
2019-05-11T23:20:40.853Z,5.20
2019-05-11T23:23:10.486Z,4.92
2019-05-11T23:25:40.044Z,3.77
2019-05-11T23:28:09.598Z,3.55
2019-05-11T23:30:39.234Z,2.92
2019-05-11T23:33:08.792Z,3.00
2019-05-11T23:35:38.586Z,2.90
2019-05-11T23:38:08.235Z,2.62
2019-05-11T23:40:38.147Z,3.80
2019-05-11T23:43:08.636Z,3.62
2019-05-11T23:45:38.571Z,3.83
2019-05-11T23:48:08.404Z,3.42
2019-05-11T23:50:38.725Z,3.75
2019-05-11T23:53:10.135Z,2.40
2019-05-11T23:55:39.670Z,2.95
2019-05-11T23:58:09.316Z,2.50
